Agency, Iowa
Current Conditions -  °F | °C
As of 12:53 PM on Wednesday 26 Nov 2014 (Local Time) from KOTM Reporting Station
Light Snow Light Snow  
Wind Chill: 22°   Ceiling: 800
Heat Index: 31°   Visibility: 1.5mi
Dew Point: 28°   Wind: 12mph
Humidity: 89%   Direction: 90°E
Pressure: 29.95"   Gusts: NA
Location:  41°N, 92.31°W
Report Text: KOTM 261853Z AUTO 09010KT 1 1/2SM -SN BR OVC008 M01/M02 A2995 RMK AO2 CIG 004V014 SLP151 P0000 T10061022
Loading
Personal Weather Stations






























Interactive Weather Map New forecast layout! Learn more

10-Day Weather Forecast

Advertisements
Track Severe Weather on mobile